Time;durP1;ratioP1;P1;durP2;ratioP2;P2;SDS_P1;SDS_P2;PMS_P1;PMS_P2;Temp;Humidity;BMP_temperature;BMP_pressure;BME280_temperature;BME280_humidity;BME280_pressure;Samples;Min_cycle;Max_cycle;Signal;HPM_P1;HPM_P2
2023/03/11 00:00:15;;;;;;;4.72;0.70;;;0.70;99.90;;;;;;5093966;28;20557;-54
2023/03/11 00:02:43;;;;;;;2.08;0.80;;;0.70;99.90;;;;;;5094043;28;20377;-54
2023/03/11 00:05:22;;;;;;;2.92;0.70;;;0.80;99.90;;;;;;5093768;28;20040;-55
2023/03/11 00:07:48;;;;;;;3.08;0.98;;;0.70;99.90;;;;;;5093700;28;20051;-55
2023/03/11 00:10:26;;;;;;;2.35;0.73;;;0.60;99.90;;;;;;5093844;28;20040;-55
2023/03/11 00:12:51;;;;;;;2.50;0.68;;;0.60;99.90;;;;;;5093962;28;20044;-55
2023/03/11 00:15:18;;;;;;;3.38;0.63;;;0.70;99.90;;;;;;5093571;28;20044;-55
2023/03/11 00:17:44;;;;;;;4.45;0.60;;;0.70;99.90;;;;;;5093847;28;20059;-53
2023/03/11 00:20:20;;;;;;;2.40;0.60;;;0.70;99.90;;;;;;5093721;28;20075;-54
2023/03/11 00:22:47;;;;;;;1.90;0.80;;;0.70;99.90;;;;;;5093885;28;20369;-55
2023/03/11 00:25:13;;;;;;;2.42;0.57;;;0.70;99.90;;;;;;5093514;28;20055;-54
2023/03/11 00:27:39;;;;;;;2.58;0.70;;;0.70;99.90;;;;;;5092108;28;20068;-56
2023/03/11 00:30:05;;;;;;;5.50;0.80;;;0.60;99.90;;;;;;5092143;28;20068;-54
2023/03/11 00:32:31;;;;;;;2.67;0.70;;;0.70;99.90;;;;;;5093400;28;20047;-54
2023/03/11 00:34:57;;;;;;;1.88;0.77;;;0.60;99.90;;;;;;5093270;28;20044;-54
2023/03/11 00:37:23;;;;;;;2.30;0.60;;;0.70;99.90;;;;;;5093270;28;20066;-55
2023/03/11 00:39:48;;;;;;;2.67;0.70;;;0.70;99.90;;;;;;5093238;28;20131;-55
2023/03/11 00:42:14;;;;;;;2.90;0.57;;;0.70;99.90;;;;;;5093010;28;20040;-55
2023/03/11 00:44:40;;;;;;;4.80;0.90;;;0.70;99.90;;;;;;5093094;28;20040;-55
2023/03/11 00:47:06;;;;;;;3.72;0.60;;;0.60;99.90;;;;;;5092966;28;20392;-54
2023/03/11 00:49:32;;;;;;;3.00;0.80;;;0.60;99.90;;;;;;5093179;28;20043;-55
2023/03/11 00:51:58;;;;;;;2.03;0.63;;;0.60;99.90;;;;;;5092509;28;20043;-54
2023/03/11 00:54:24;;;;;;;5.25;0.85;;;0.60;99.90;;;;;;5093029;28;20048;-54
2023/03/11 00:56:49;;;;;;;3.63;0.60;;;0.60;99.90;;;;;;5092985;28;20124;-53
2023/03/11 00:59:15;;;;;;;3.95;0.70;;;0.60;99.90;;;;;;5092869;28;20173;-55
2023/03/11 01:01:41;;;;;;;4.03;0.65;;;0.60;99.90;;;;;;5093045;28;20090;-55
2023/03/11 01:04:06;;;;;;;2.63;0.68;;;0.60;99.90;;;;;;5092736;28;20052;-55
2023/03/11 01:06:32;;;;;;;1.70;0.60;;;0.60;99.90;;;;;;5092905;28;20040;-55
2023/03/11 01:08:58;;;;;;;1.23;0.60;;;0.60;99.90;;;;;;5092810;28;20480;-55
2023/03/11 01:11:23;;;;;;;2.60;0.57;;;0.60;99.90;;;;;;5092780;28;20101;-54
2023/03/11 01:13:49;;;;;;;1.35;0.52;;;0.60;99.90;;;;;;5092789;28;20459;-54
2023/03/11 01:16:15;;;;;;;1.70;0.70;;;0.60;99.90;;;;;;5092470;28;20055;-55
2023/03/11 01:18:40;;;;;;;2.20;0.70;;;0.60;99.90;;;;;;5091419;28;20089;-53
2023/03/11 01:21:06;;;;;;;1.98;0.75;;;0.60;99.90;;;;;;5092272;28;20036;-55
2023/03/11 01:23:32;;;;;;;4.60;0.80;;;0.60;99.90;;;;;;5091200;28;20039;-54
2023/03/11 01:25:58;;;;;;;3.40;0.80;;;0.60;99.90;;;;;;5092271;28;20099;-55
2023/03/11 01:28:24;;;;;;;1.27;0.47;;;0.60;99.90;;;;;;5091334;28;20043;-54
2023/03/11 01:30:49;;;;;;;1.77;0.60;;;0.60;99.90;;;;;;5092241;28;20491;-55
2023/03/11 01:33:17;;;;;;;1.42;0.60;;;0.60;99.90;;;;;;5092224;28;20040;-54
2023/03/11 01:35:44;;;;;;;1.33;0.65;;;0.60;99.90;;;;;;5091083;28;20051;-54
2023/03/11 01:38:11;;;;;;;2.38;0.75;;;0.60;99.90;;;;;;5090892;28;20040;-54
2023/03/11 01:40:38;;;;;;;5.20;0.85;;;0.60;99.90;;;;;;5092236;28;20035;-55
2023/03/11 01:43:25;;;;;;;2.75;1.10;;;0.60;99.90;;;;;;5092243;28;20119;-56
2023/03/11 01:45:51;;;;;;;2.65;0.70;;;0.70;99.90;;;;;;5090773;28;20044;-55
2023/03/11 01:48:17;;;;;;;3.45;0.80;;;0.60;99.90;;;;;;5091275;28;20391;-55
2023/03/11 01:50:48;;;;;;;2.33;0.60;;;0.60;99.90;;;;;;5092256;28;20043;-55
2023/03/11 01:53:16;;;;;;;6.40;1.05;;;0.50;99.90;;;;;;5092447;28;20383;-55
2023/03/11 01:55:42;;;;;;;2.22;0.63;;;0.60;99.90;;;;;;5091800;28;20547;-55
2023/03/11 01:58:13;;;;;;;2.80;0.50;;;0.60;99.90;;;;;;5092364;28;20047;-55
2023/03/11 02:00:41;;;;;;;5.43;0.70;;;0.60;99.90;;;;;;5091862;28;20059;-54
2023/03/11 02:03:36;;;;;;;2.30;0.50;;;0.50;99.90;;;;;;5093696;28;20476;-55
2023/03/11 02:06:06;;;;;;;2.83;0.68;;;0.50;99.90;;;;;;5096112;28;20121;-55
2023/03/11 02:08:35;;;;;;;3.97;0.70;;;0.50;99.90;;;;;;5096396;28;20165;-55
2023/03/11 02:11:04;;;;;;;2.90;0.43;;;0.50;99.90;;;;;;5096125;28;20044;-55
2023/03/11 02:13:33;;;;;;;1.63;0.60;;;0.40;99.90;;;;;;5096137;28;20071;-55
2023/03/11 02:15:59;;;;;;;1.48;0.45;;;0.40;99.90;;;;;;5096041;28;20294;-54
2023/03/11 02:18:25;;;;;;;1.30;0.60;;;0.40;99.90;;;;;;5095634;28;20036;-51
2023/03/11 02:21:04;;;;;;;2.20;0.57;;;0.30;99.90;;;;;;5096121;28;20093;-55
2023/03/11 02:23:41;;;;;;;3.47;0.85;;;0.30;99.90;;;;;;5096009;28;20040;-56
2023/03/11 02:26:21;;;;;;;3.67;0.50;;;0.20;99.90;;;;;;5096145;28;20075;-55
2023/03/11 02:28:49;;;;;;;6.25;0.70;;;0.20;99.90;;;;;;5095808;28;20415;-55
2023/03/11 02:31:15;;;;;;;0.63;0.50;;;0.10;99.90;;;;;;5095650;28;20044;-55
2023/03/11 02:33:42;;;;;;;5.03;0.93;;;0.10;99.90;;;;;;5095567;28;20526;-56
2023/03/11 02:36:29;;;;;;;3.05;0.65;;;0.20;99.90;;;;;;5095940;28;20044;-55
2023/03/11 02:38:55;;;;;;;3.08;0.75;;;0.10;99.90;;;;;;5094608;28;20036;-55
2023/03/11 02:41:20;;;;;;;2.33;0.70;;;0.10;99.90;;;;;;5095378;28;20510;-55
2023/03/11 02:43:47;;;;;;;2.38;0.50;;;0.10;99.90;;;;;;5095549;28;20040;-56
2023/03/11 02:46:14;;;;;;;3.40;0.88;;;0.10;99.90;;;;;;5095374;28;20365;-56
2023/03/11 02:48:40;;;;;;;2.28;0.52;;;0.10;99.90;;;;;;5095272;28;20503;-56
2023/03/11 02:51:06;;;;;;;2.00;0.70;;;0.00;99.90;;;;;;5095113;28;20042;-55
2023/03/11 02:53:37;;;;;;;3.42;0.95;;;0.00;99.90;;;;;;5095409;28;20039;-55
2023/03/11 02:56:03;;;;;;;2.47;0.70;;;-0.10;99.90;;;;;;5095142;28;20480;-55
2023/03/11 02:58:29;;;;;;;4.82;0.68;;;0.00;99.90;;;;;;5095012;28;20039;-54
2023/03/11 03:00:55;;;;;;;1.75;0.60;;;-0.10;99.90;;;;;;5094962;28;20036;-56
2023/03/11 03:03:20;;;;;;;5.07;0.70;;;-0.10;99.90;;;;;;5095084;28;20298;-55
2023/03/11 03:05:46;;;;;;;1.40;0.57;;;-0.10;99.90;;;;;;5093741;28;20119;-55
2023/03/11 03:08:12;;;;;;;5.05;0.80;;;-0.10;99.90;;;;;;5095091;28;20396;-56
2023/03/11 03:10:37;;;;;;;4.15;0.77;;;-0.20;99.90;;;;;;5093720;28;20081;-55
2023/03/11 03:13:03;;;;;;;6.88;0.70;;;-0.10;99.90;;;;;;5094352;28;20047;-54
2023/03/11 03:15:29;;;;;;;0.52;0.50;;;-0.20;99.90;;;;;;5094809;28;20568;-56
2023/03/11 03:17:55;;;;;;;5.93;1.00;;;-0.20;99.90;;;;;;5094928;28;20098;-55
2023/03/11 03:20:21;;;;;;;1.80;0.60;;;-0.20;99.90;;;;;;5093452;28;20043;-55
2023/03/11 03:22:48;;;;;;;6.20;0.75;;;-0.20;99.90;;;;;;5094767;28;20459;-55
2023/03/11 03:25:14;;;;;;;3.05;0.52;;;-0.20;99.90;;;;;;5094676;28;20044;-53
2023/03/11 03:27:39;;;;;;;2.58;0.70;;;-0.30;99.90;;;;;;5094526;28;20101;-55
2023/03/11 03:30:07;;;;;;;1.75;0.68;;;-0.30;99.90;;;;;;5094520;28;20134;-55
2023/03/11 03:32:33;;;;;;;1.73;0.60;;;-0.30;99.90;;;;;;5093814;28;20048;-55
2023/03/11 03:35:00;;;;;;;3.80;0.90;;;-0.40;99.90;;;;;;5092997;28;20044;-55
2023/03/11 03:37:27;;;;;;;1.90;0.65;;;-0.50;99.90;;;;;;5094538;28;20123;-55
2023/03/11 03:39:53;;;;;;;4.05;0.93;;;-0.50;99.90;;;;;;5094445;28;20090;-56
2023/03/11 03:42:20;;;;;;;2.53;0.85;;;-0.40;99.90;;;;;;5094062;28;20035;-55
2023/03/11 03:44:45;;;;;;;2.70;0.70;;;-0.50;99.90;;;;;;5094278;28;20043;-55
2023/03/11 03:47:11;;;;;;;5.60;0.80;;;-0.50;99.90;;;;;;5093890;28;20040;-55
2023/03/11 03:49:37;;;;;;;5.38;0.80;;;-0.50;99.90;;;;;;5094360;28;20036;-55
2023/03/11 03:52:06;;;;;;;2.08;0.77;;;-0.50;99.90;;;;;;5094191;28;20028;-55
2023/03/11 03:54:32;;;;;;;6.43;0.60;;;-0.50;99.90;;;;;;5093921;28;20480;-54
2023/03/11 03:56:57;;;;;;;1.80;0.57;;;-0.50;99.90;;;;;;5093884;28;20040;-56
2023/03/11 03:59:23;;;;;;;3.60;0.60;;;-0.60;99.90;;;;;;5094024;28;20032;-55
2023/03/11 04:01:49;;;;;;;2.20;1.13;;;-0.60;99.90;;;;;;5093687;28;20056;-56
2023/03/11 04:04:14;;;;;;;2.40;0.70;;;-0.60;99.90;;;;;;5092941;28;20130;-56
2023/03/11 04:06:41;;;;;;;1.35;0.55;;;-0.70;99.90;;;;;;5094145;28;20514;-55
2023/03/11 04:09:10;;;;;;;1.45;0.73;;;-0.70;99.90;;;;;;5092478;28;20075;-56
2023/03/11 04:11:35;;;;;;;1.67;0.65;;;-0.70;99.90;;;;;;5093731;28;20392;-56
2023/03/11 04:14:02;;;;;;;1.13;0.52;;;-0.70;99.90;;;;;;5093685;28;20126;-56
2023/03/11 04:16:28;;;;;;;2.17;0.75;;;-0.70;99.90;;;;;;5093848;28;20040;-56
2023/03/11 04:18:54;;;;;;;1.17;0.50;;;-0.80;99.90;;;;;;5093613;28;20039;-56
2023/03/11 04:21:19;;;;;;;2.70;0.60;;;-0.80;99.90;;;;;;5093878;28;20032;-56
2023/03/11 04:23:45;;;;;;;3.42;0.60;;;-0.70;99.90;;;;;;5093899;28;20070;-56
2023/03/11 04:26:11;;;;;;;3.58;0.80;;;-0.80;99.90;;;;;;5092391;28;20044;-57
2023/03/11 04:28:36;;;;;;;2.95;0.60;;;-0.90;99.90;;;;;;5093817;28;20571;-56
2023/03/11 04:31:03;;;;;;;4.38;0.77;;;-0.80;99.90;;;;;;5093367;28;20340;-56
2023/03/11 04:33:28;;;;;;;3.83;0.70;;;-0.90;99.90;;;;;;5093408;28;20036;-56
2023/03/11 04:35:54;;;;;;;1.80;0.60;;;-0.90;99.90;;;;;;5092018;28;20480;-56
2023/03/11 04:38:20;;;;;;;1.17;0.55;;;-1.00;99.90;;;;;;5093333;28;20036;-56
2023/03/11 04:40:46;;;;;;;4.47;0.90;;;-1.00;99.90;;;;;;5092860;28;20093;-56
2023/03/11 04:43:11;;;;;;;2.28;0.60;;;-1.10;99.90;;;;;;5091953;28;20500;-56
2023/03/11 04:45:39;;;;;;;2.80;0.70;;;-1.10;99.90;;;;;;5093161;28;20488;-56
2023/03/11 04:48:04;;;;;;;0.90;0.50;;;-1.20;99.90;;;;;;5093159;28;20035;-56
2023/03/11 04:50:30;;;;;;;4.15;0.55;;;-1.20;99.90;;;;;;5093222;28;20040;-53
2023/03/11 04:52:56;;;;;;;3.50;0.80;;;-1.30;99.90;;;;;;5093500;28;20047;-53
2023/03/11 04:55:21;;;;;;;0.98;0.50;;;-1.30;99.90;;;;;;5092696;28;20044;-53
2023/03/11 04:57:47;;;;;;;2.05;0.60;;;-1.30;99.90;;;;;;5093260;28;20068;-54
2023/03/11 05:00:14;;;;;;;3.00;0.60;;;-1.60;99.90;;;;;;5091826;28;20044;-55
2023/03/11 05:02:41;;;;;;;1.42;0.60;;;-1.50;99.90;;;;;;5102480;28;20579;-56
2023/03/11 05:05:08;;;;;;;1.63;0.65;;;-1.60;99.90;;;;;;5092512;28;20056;-52
2023/03/11 05:07:35;;;;;;;2.92;0.70;;;-1.60;99.90;;;;;;5092560;28;20063;-56
2023/03/11 05:10:01;;;;;;;2.28;0.70;;;-1.70;99.90;;;;;;5092671;28;20039;-56
2023/03/11 05:12:27;;;;;;;2.05;0.63;;;-1.70;99.90;;;;;;5092790;28;20472;-55
2023/03/11 05:14:53;;;;;;;3.13;0.70;;;-1.50;99.90;;;;;;5092716;28;20071;-54
2023/03/11 05:17:18;;;;;;;2.67;0.65;;;-1.70;99.90;;;;;;5092620;28;20038;-55
2023/03/11 05:19:44;;;;;;;3.35;0.70;;;-1.70;99.90;;;;;;5092718;28;20040;-56
2023/03/11 05:22:10;;;;;;;4.53;0.70;;;-1.70;99.90;;;;;;5092522;28;20081;-56
2023/03/11 05:24:36;;;;;;;1.90;0.60;;;-1.40;99.90;;;;;;5092407;28;20396;-55
2023/03/11 05:27:02;;;;;;;2.70;0.63;;;-1.80;99.90;;;;;;5092648;28;20035;-57
2023/03/11 05:29:29;;;;;;;1.85;0.70;;;-1.70;99.90;;;;;;5092578;28;20502;-56
2023/03/11 05:31:54;;;;;;;3.08;0.80;;;-1.70;99.90;;;;;;5092204;28;20043;-57
2023/03/11 05:34:20;;;;;;;3.08;0.90;;;-1.50;99.90;;;;;;5092412;28;20039;-57
2023/03/11 05:36:46;;;;;;;2.03;0.77;;;-1.70;99.90;;;;;;5092033;28;20036;-56
2023/03/11 05:39:12;;;;;;;3.08;0.80;;;-1.70;99.90;;;;;;5092083;28;20028;-57
2023/03/11 05:41:38;;;;;;;2.45;0.70;;;-1.80;99.90;;;;;;5090730;28;20101;-56
2023/03/11 05:44:04;;;;;;;1.20;0.60;;;-1.80;99.90;;;;;;5092428;28;20111;-57
2023/03/11 05:46:29;;;;;;;1.85;0.57;;;-1.80;99.90;;;;;;5092431;28;20506;-57
2023/03/11 05:48:55;;;;;;;4.03;0.85;;;-1.70;99.90;;;;;;5092400;28;20048;-57
2023/03/11 05:51:21;;;;;;;0.70;0.57;;;-1.80;99.90;;;;;;5091785;28;20069;-57
2023/03/11 05:53:48;;;;;;;5.43;0.90;;;-1.80;99.90;;;;;;5092534;28;20036;-57
2023/03/11 05:56:19;;;;;;;4.53;0.73;;;-1.90;99.90;;;;;;5092209;28;20123;-57
2023/03/11 05:58:45;;;;;;;0.88;0.50;;;-1.70;99.90;;;;;;5092178;28;20032;-56
2023/03/11 06:01:13;;;;;;;3.00;0.77;;;-1.80;99.90;;;;;;5092127;28;20053;-57
2023/03/11 06:03:39;;;;;;;3.10;0.93;;;-1.90;99.90;;;;;;5092128;28;20105;-57
2023/03/11 06:06:08;;;;;;;2.75;0.73;;;-1.80;99.90;;;;;;5091964;28;20055;-57
2023/03/11 06:08:34;;;;;;;1.27;0.70;;;-1.80;99.90;;;;;;5090835;28;20562;-56
2023/03/11 06:11:09;;;;;;;3.75;0.95;;;-1.70;99.90;;;;;;5090767;28;20051;-55
2023/03/11 06:13:36;;;;;;;3.03;1.08;;;-1.80;99.90;;;;;;5090894;28;20044;-57
2023/03/11 06:16:02;;;;;;;3.53;0.82;;;-1.80;99.90;;;;;;5090393;28;20063;-56
2023/03/11 06:18:27;;;;;;;2.42;0.95;;;-1.80;99.90;;;;;;5090134;28;20688;-56
2023/03/11 06:20:57;;;;;;;3.88;1.05;;;-1.80;99.90;;;;;;5090146;28;20039;-56
2023/03/11 06:23:22;;;;;;;7.93;2.03;;;-1.90;99.90;;;;;;5090204;28;20039;-55
2023/03/11 06:25:56;;;;;;;6.72;2.33;;;-1.80;99.90;;;;;;5090560;28;20032;-57
2023/03/11 06:28:21;;;;;;;6.07;2.40;;;-1.80;99.90;;;;;;5090305;28;20055;-56
2023/03/11 06:30:47;;;;;;;4.88;1.80;;;-1.90;99.90;;;;;;5090278;28;20044;-56
2023/03/11 06:33:13;;;;;;;2.63;1.05;;;-1.80;99.90;;;;;;5090248;28;20048;-57
2023/03/11 06:35:40;;;;;;;4.95;1.17;;;-1.70;99.90;;;;;;5090302;28;20162;-55
2023/03/11 06:38:06;;;;;;;3.80;1.30;;;-1.60;99.90;;;;;;5090322;28;20094;-53
2023/03/11 06:40:32;;;;;;;1.95;1.00;;;-1.60;99.90;;;;;;5090368;28;20032;-57
2023/03/11 06:42:58;;;;;;;5.57;1.08;;;-1.60;99.90;;;;;;5090445;28;20064;-57
2023/03/11 06:45:23;;;;;;;1.95;0.80;;;-1.60;99.90;;;;;;5079222;28;20652;-56
2023/03/11 06:47:49;;;;;;;1.35;0.70;;;-1.70;99.90;;;;;;5077384;28;20040;-57
2023/03/11 06:50:15;;;;;;;2.90;1.10;;;-1.70;99.90;;;;;;5081579;28;20133;-57
2023/03/11 06:52:41;;;;;;;4.32;1.00;;;-1.50;99.90;;;;;;5088602;28;20058;-57
2023/03/11 06:55:07;;;;;;;3.53;0.90;;;-1.40;99.90;;;;;;5094106;28;20039;-55
2023/03/11 06:57:33;;;;;;;4.45;0.85;;;-1.40;99.90;;;;;;5089093;28;20043;-57
2023/03/11 06:59:59;;;;;;;3.28;1.13;;;-1.40;99.90;;;;;;5082737;28;20036;-57
2023/03/11 07:02:24;;;;;;;2.35;0.95;;;-1.40;99.90;;;;;;5071955;28;20408;-56
2023/03/11 07:04:51;;;;;;;4.00;0.98;;;-1.40;99.90;;;;;;5073441;28;20060;-57
2023/03/11 07:07:17;;;;;;;2.70;0.70;;;-1.40;99.90;;;;;;5072116;28;20048;-57
2023/03/11 07:09:43;;;;;;;1.23;0.60;;;-1.20;99.90;;;;;;5072220;28;20048;-57
2023/03/11 07:12:09;;;;;;;1.90;0.70;;;-1.40;99.90;;;;;;5073265;28;20506;-57
2023/03/11 07:14:34;;;;;;;2.72;0.90;;;-1.40;99.90;;;;;;5073222;28;20044;-57
2023/03/11 07:17:00;;;;;;;4.60;1.02;;;-1.10;99.90;;;;;;5072748;28;20454;-56
2023/03/11 07:19:26;;;;;;;2.28;0.70;;;-1.10;99.90;;;;;;5072940;28;20491;-57
2023/03/11 07:21:52;;;;;;;5.40;1.00;;;-1.20;99.90;;;;;;5072908;28;20071;-57
2023/03/11 07:24:17;;;;;;;2.92;0.68;;;-1.20;99.90;;;;;;5074378;28;20393;-56
2023/03/11 07:26:43;;;;;;;4.03;0.98;;;-0.90;99.90;;;;;;5082260;28;20108;-56
2023/03/11 07:29:09;;;;;;;5.20;0.90;;;-1.00;99.90;;;;;;5083706;28;20032;-56
2023/03/11 07:31:36;;;;;;;4.65;0.95;;;-0.90;99.90;;;;;;5078948;28;20040;-57
2023/03/11 07:34:05;;;;;;;3.78;1.05;;;-0.80;99.90;;;;;;5092462;28;20044;-56
2023/03/11 07:36:31;;;;;;;2.72;0.80;;;-0.80;99.90;;;;;;5083825;28;20043;-56
2023/03/11 07:38:58;;;;;;;2.58;1.08;;;-0.60;99.90;;;;;;5083456;28;20404;-56
2023/03/11 07:41:25;;;;;;;5.95;2.15;;;-0.70;99.90;;;;;;5082577;28;20174;-55
2023/03/11 07:43:54;;;;;;;7.45;2.90;;;-0.60;99.90;;;;;;5081356;28;20093;-56
2023/03/11 07:46:21;;;;;;;5.03;1.52;;;-0.50;99.90;;;;;;5080863;28;20048;-56
2023/03/11 07:48:48;;;;;;;5.47;0.90;;;-0.40;99.90;;;;;;5081188;28;20028;-54
2023/03/11 07:51:17;;;;;;;2.60;0.90;;;-0.20;99.90;;;;;;5080863;28;20043;-57
2023/03/11 07:53:43;;;;;;;5.38;1.40;;;-0.40;99.90;;;;;;5077152;28;20047;-56
2023/03/11 07:56:11;;;;;;;7.38;1.98;;;-0.30;99.90;;;;;;5079233;28;20544;-57
2023/03/11 07:58:38;;;;;;;5.38;1.40;;;-0.30;99.90;;;;;;5081810;28;20048;-56
2023/03/11 08:01:05;;;;;;;4.43;0.98;;;0.00;99.90;;;;;;5080975;28;20041;-57
2023/03/11 08:03:32;;;;;;;4.55;1.10;;;-0.20;99.90;;;;;;5080526;28;20505;-57
2023/03/11 08:05:58;;;;;;;2.45;1.08;;;0.10;99.90;;;;;;5083366;28;20041;-56
2023/03/11 08:08:24;;;;;;;4.00;0.90;;;0.10;99.90;;;;;;5077410;28;20062;-56
2023/03/11 08:10:50;;;;;;;4.47;1.23;;;0.10;99.90;;;;;;5083504;28;20535;-57
2023/03/11 08:13:15;;;;;;;4.15;1.00;;;0.10;99.90;;;;;;5078427;28;20048;-56
2023/03/11 08:15:41;;;;;;;2.83;0.75;;;0.30;99.90;;;;;;5080930;28;20041;-56
2023/03/11 08:18:07;;;;;;;5.70;0.90;;;0.20;99.90;;;;;;5086332;28;20047;-55
2023/03/11 08:20:33;;;;;;;5.25;0.80;;;0.40;99.90;;;;;;5092094;28;20036;-55
2023/03/11 08:22:58;;;;;;;3.03;0.90;;;0.50;99.90;;;;;;5092579;28;20046;-56
2023/03/11 08:25:24;;;;;;;6.40;1.23;;;0.60;99.90;;;;;;5092205;28;20044;-56
2023/03/11 08:27:50;;;;;;;2.95;1.00;;;0.50;99.90;;;;;;5091955;28;20036;-56
2023/03/11 08:30:16;;;;;;;3.92;1.10;;;0.50;99.90;;;;;;5091748;28;20050;-55
2023/03/11 08:32:42;;;;;;;1.75;0.80;;;0.80;99.90;;;;;;5091130;28;20480;-54
2023/03/11 08:35:09;;;;;;;3.13;0.95;;;0.90;99.90;;;;;;5091978;28;20044;-55
2023/03/11 08:37:35;;;;;;;5.25;1.17;;;0.80;99.90;;;;;;5091734;28;20065;-52
2023/03/11 08:40:00;;;;;;;2.95;0.93;;;0.80;99.90;;;;;;5091976;28;20040;-55
2023/03/11 08:42:26;;;;;;;5.78;1.13;;;1.20;99.90;;;;;;5091559;28;20140;-55
2023/03/11 08:44:52;;;;;;;4.95;0.90;;;1.10;99.90;;;;;;5091642;28;20101;-55
2023/03/11 08:47:17;;;;;;;5.80;1.27;;;1.00;99.90;;;;;;5091741;28;20032;-55
2023/03/11 08:49:43;;;;;;;3.65;1.02;;;1.20;99.90;;;;;;5091368;28;20042;-54
2023/03/11 08:52:09;;;;;;;4.03;1.13;;;1.20;99.90;;;;;;5081168;28;20028;-55
2023/03/11 08:54:35;;;;;;;4.65;1.00;;;1.30;99.90;;;;;;5082231;28;20040;-54
2023/03/11 08:57:03;;;;;;;4.47;1.30;;;1.30;99.90;;;;;;5091258;28;20052;-52
2023/03/11 08:59:29;;;;;;;6.90;1.50;;;1.20;99.90;;;;;;5091511;28;20377;-53
2023/03/11 09:01:55;;;;;;;2.88;0.90;;;1.40;99.90;;;;;;5091295;28;20075;-54
2023/03/11 09:04:21;;;;;;;3.47;1.65;;;1.50;99.90;;;;;;5090859;28;20075;-52
2023/03/11 09:06:49;;;;;;;4.50;1.05;;;1.40;99.90;;;;;;5082598;28;20040;-53
2023/03/11 09:09:17;;;;;;;5.82;1.08;;;1.60;99.90;;;;;;5080685;28;20499;-54
2023/03/11 09:11:42;;;;;;;3.45;1.10;;;1.50;99.90;;;;;;5081963;28;20048;-54
2023/03/11 09:14:08;;;;;;;3.55;1.70;;;1.60;99.90;;;;;;5082467;28;20055;-56
2023/03/11 09:16:33;;;;;;;2.65;0.93;;;1.70;99.90;;;;;;5080093;28;20047;-55
2023/03/11 09:19:02;;;;;;;4.38;1.08;;;2.00;99.90;;;;;;5081910;28;20029;-54
2023/03/11 09:21:28;;;;;;;2.83;0.80;;;2.00;99.90;;;;;;5081463;28;20040;-55
2023/03/11 09:23:53;;;;;;;2.70;1.17;;;2.00;99.90;;;;;;5080493;28;20087;-55
2023/03/11 09:26:20;;;;;;;6.63;1.55;;;2.00;99.90;;;;;;5078755;28;20114;-56
2023/03/11 09:28:47;;;;;;;3.10;0.90;;;1.90;99.90;;;;;;5079784;28;20124;-55
2023/03/11 09:31:14;;;;;;;4.15;1.00;;;2.00;99.90;;;;;;5082465;28;20040;-59
2023/03/11 09:33:41;;;;;;;3.00;0.93;;;2.00;99.90;;;;;;5076716;28;20040;-58
2023/03/11 09:36:11;;;;;;;4.15;1.30;;;2.00;99.90;;;;;;5069238;28;20101;-56
2023/03/11 09:38:37;;;;;;;2.58;1.10;;;2.10;99.90;;;;;;5069450;28;20040;-55
2023/03/11 09:41:36;;;;;;;5.38;1.40;;;2.10;99.90;;;;;;5070850;28;20114;-54
2023/03/11 09:44:19;;;;;;;4.25;0.93;;;2.40;99.90;;;;;;5070668;28;20044;-54
2023/03/11 09:47:35;;;;;;;4.10;1.20;;;2.30;99.90;;;;;;5070226;28;20083;-55
2023/03/11 09:50:39;;;;;;;5.53;1.50;;;2.30;99.90;;;;;;5037950;28;20596;-54
2023/03/11 09:53:32;;;;;;;2.40;1.02;;;2.50;99.90;;;;;;5030939;28;20060;-54
2023/03/11 09:55:59;;;;;;;4.47;0.90;;;2.50;99.90;;;;;;5086237;28;20327;-54
2023/03/11 09:58:43;;;;;;;3.05;1.10;;;2.50;99.90;;;;;;5090519;28;20122;-55
2023/03/11 10:01:20;;;;;;;3.03;1.35;;;2.80;99.90;;;;;;5090221;28;20101;-56
2023/03/11 10:03:48;;;;;;;4.07;1.10;;;2.80;99.90;;;;;;5090164;28;20070;-55
2023/03/11 10:06:22;;;;;;;3.58;1.05;;;2.70;99.90;;;;;;5089047;28;20059;-55
2023/03/11 10:09:05;;;;;;;5.28;1.30;;;2.80;99.90;;;;;;5088999;28;20492;-55
2023/03/11 10:12:10;;;;;;;3.63;1.40;;;2.90;99.90;;;;;;5090212;28;20036;-55
2023/03/11 10:14:55;;;;;;;5.32;1.08;;;3.00;99.90;;;;;;5066151;28;20052;-55
2023/03/11 10:17:35;;;;;;;4.85;1.33;;;3.00;99.90;;;;;;5087451;28;20044;-55
2023/03/11 10:20:11;;;;;;;9.02;1.40;;;3.10;99.90;;;;;;5080243;28;20044;-55
2023/03/11 10:22:55;;;;;;;6.05;1.42;;;3.10;99.90;;;;;;5085218;28;20086;-55
2023/03/11 10:25:41;;;;;;;3.97;1.35;;;3.30;99.90;;;;;;5093958;28;20047;-55
2023/03/11 10:28:16;;;;;;;5.35;1.25;;;3.30;99.90;;;;;;5088091;28;20036;-55
2023/03/11 10:30:59;;;;;;;4.35;1.08;;;3.40;99.90;;;;;;5082667;28;20548;-55
2023/03/11 10:33:45;;;;;;;3.30;1.13;;;3.30;99.90;;;;;;5084836;28;20059;-53
2023/03/11 10:36:16;;;;;;;3.72;1.00;;;3.50;99.90;;;;;;5076203;28;20048;-55
2023/03/11 10:38:46;;;;;;;4.03;1.30;;;3.60;99.90;;;;;;5073808;28;20036;-55
2023/03/11 10:41:20;;;;;;;2.92;1.60;;;3.50;99.90;;;;;;5073798;28;20037;-55
2023/03/11 10:44:02;;;;;;;5.13;1.00;;;3.70;99.90;;;;;;5073429;28;20041;-55
2023/03/11 10:46:29;;;;;;;7.50;1.00;;;3.70;99.90;;;;;;5073705;28;20040;-53
2023/03/11 10:48:55;;;;;;;5.82;1.88;;;3.90;99.90;;;;;;5073841;28;20057;-54
2023/03/11 10:51:23;;;;;;;4.72;1.40;;;3.90;99.90;;;;;;5093405;28;20154;-55
2023/03/11 10:53:51;;;;;;;5.22;1.27;;;4.00;99.90;;;;;;5093700;28;20491;-52
2023/03/11 10:56:38;;;;;;;5.13;1.02;;;4.00;99.90;;;;;;5093712;28;20044;-53
2023/03/11 10:59:21;;;;;;;2.83;1.00;;;4.00;99.90;;;;;;5093899;28;20061;-54
2023/03/11 11:02:13;;;;;;;7.28;1.20;;;3.90;99.90;;;;;;5088456;28;20032;-54
2023/03/11 11:04:40;;;;;;;3.33;1.20;;;4.00;99.90;;;;;;5085719;28;20052;-54
2023/03/11 11:07:30;;;;;;;2.38;0.90;;;4.10;99.90;;;;;;5091942;28;20488;-54
2023/03/11 11:10:11;;;;;;;2.65;1.10;;;4.00;99.90;;;;;;5089895;28;20043;-55
2023/03/11 11:12:58;;;;;;;2.42;0.90;;;4.10;99.90;;;;;;5084478;28;20784;-55
2023/03/11 11:15:33;;;;;;;7.43;1.40;;;4.20;99.90;;;;;;5093306;28;20052;-56
2023/03/11 11:18:02;;;;;;;3.08;1.20;;;4.40;99.90;;;;;;5085578;28;20036;-55
2023/03/11 11:20:29;;;;;;;3.85;1.05;;;4.50;99.90;;;;;;5083237;28;20424;-56
2023/03/11 11:23:00;;;;;;;4.65;1.02;;;4.40;99.90;;;;;;5078117;28;20068;-56
2023/03/11 11:25:34;;;;;;;4.03;1.30;;;4.60;99.90;;;;;;5073020;28;20115;-56
2023/03/11 11:28:20;;;;;;;3.22;1.00;;;4.60;99.90;;;;;;5071427;28;20493;-56
2023/03/11 11:30:58;;;;;;;4.40;1.25;;;4.90;99.90;;;;;;5071159;28;20056;-56
2023/03/11 11:33:28;;;;;;;6.07;1.00;;;4.70;99.90;;;;;;5071349;28;20539;-55
2023/03/11 11:36:00;;;;;;;8.00;1.83;;;4.70;99.90;;;;;;5072415;28;20051;-55
2023/03/11 11:38:28;;;;;;;3.38;1.48;;;4.70;99.90;;;;;;5072815;28;20404;-55
2023/03/11 11:40:56;;;;;;;7.22;1.88;;;4.70;99.90;;;;;;5072429;28;20489;-54
2023/03/11 11:43:34;;;;;;;4.63;1.23;;;4.90;99.90;;;;;;5072427;28;20121;-55
2023/03/11 11:46:12;;;;;;;3.67;1.00;;;4.80;99.90;;;;;;5072078;28;20037;-55
2023/03/11 11:49:09;;;;;;;3.05;1.10;;;4.90;99.90;;;;;;5072150;28;20507;-55
2023/03/11 11:51:47;;;;;;;3.75;0.90;;;4.90;99.90;;;;;;5070859;28;20559;-55
2023/03/11 11:54:32;;;;;;;5.43;1.23;;;4.90;99.90;;;;;;5092369;28;20040;-55
2023/03/11 11:57:00;;;;;;;4.70;1.27;;;5.00;99.90;;;;;;5092137;28;20484;-55
2023/03/11 11:59:27;;;;;;;3.08;1.20;;;5.00;99.90;;;;;;5092579;28;20069;-55
2023/03/11 12:02:05;;;;;;;1.92;1.00;;;5.10;99.90;;;;;;5092435;28;20109;-56
2023/03/11 12:04:42;;;;;;;3.25;1.25;;;5.10;99.90;;;;;;5092349;28;20408;-55
2023/03/11 12:07:14;;;;;;;8.07;1.35;;;5.20;99.90;;;;;;5092292;28;20050;-56
2023/03/11 12:09:57;;;;;;;7.38;1.27;;;5.20;99.90;;;;;;5092666;28;20044;-55
2023/03/11 12:12:35;;;;;;;3.97;0.90;;;5.30;99.90;;;;;;5091119;28;20127;-56
2023/03/11 12:15:25;;;;;;;4.47;1.30;;;5.20;99.90;;;;;;5092203;28;20404;-56
2023/03/11 12:17:58;;;;;;;3.03;1.00;;;5.20;99.90;;;;;;5082598;28;20048;-56
2023/03/11 12:20:38;;;;;;;3.85;0.95;;;5.20;99.90;;;;;;5090046;28;20067;-56
2023/03/11 12:23:10;;;;;;;7.00;2.33;;;5.30;99.90;;;;;;5091981;28;20047;-56
2023/03/11 12:25:58;;;;;;;3.00;0.90;;;5.30;99.90;;;;;;5092349;28;20036;-56
2023/03/11 12:28:28;;;;;;;2.20;0.80;;;5.30;99.90;;;;;;5092078;28;20046;-56
2023/03/11 12:31:00;;;;;;;6.15;1.10;;;5.40;99.90;;;;;;5091939;28;20051;-56
2023/03/11 12:33:41;;;;;;;3.47;1.10;;;5.30;99.90;;;;;;5091518;28;20403;-56
2023/03/11 12:36:18;;;;;;;4.25;0.90;;;5.20;99.90;;;;;;5091510;28;20068;-56
2023/03/11 12:38:48;;;;;;;3.33;0.70;;;5.20;99.90;;;;;;5091819;28;20143;-56
2023/03/11 12:41:13;;;;;;;4.43;0.90;;;5.10;99.90;;;;;;5091494;28;20098;-56
2023/03/11 12:43:39;;;;;;;3.80;1.00;;;5.10;99.90;;;;;;5090464;28;20047;-56
2023/03/11 12:46:07;;;;;;;5.45;1.08;;;5.30;99.90;;;;;;5090933;28;20172;-58
2023/03/11 12:48:45;;;;;;;6.25;0.93;;;5.20;99.90;;;;;;5091194;28;20032;-58
2023/03/11 12:51:26;;;;;;;2.35;0.85;;;5.20;99.90;;;;;;5088600;28;20056;-57
2023/03/11 12:53:53;;;;;;;2.35;1.02;;;5.40;99.90;;;;;;5091859;28;20039;-56
2023/03/11 12:56:42;;;;;;;3.90;0.77;;;5.40;99.90;;;;;;5090132;28;20040;-56
2023/03/11 12:59:42;;;;;;;7.00;1.00;;;5.40;99.90;;;;;;5091783;28;20097;-55
2023/03/11 13:02:35;;;;;;;2.40;0.70;;;5.50;99.90;;;;;;5073626;28;20117;-57
2023/03/11 13:05:26;;;;;;;2.88;0.77;;;5.40;99.90;;;;;;5078732;28;20547;-56